Time;durP1;ratioP1;P1;durP2;ratioP2;P2;SDS_P1;SDS_P2;PMS_P1;PMS_P2;Temp;Humidity;BMP_temperature;BMP_pressure;BME280_temperature;BME280_humidity;BME280_pressure;Samples;Min_cycle;Max_cycle;Signal;HPM_P1;HPM_P2
2023/05/17 00:00:34;;;;;;;7.75;4.38;;;15.90;99.90;;;;;;5113009;28;20152;-73
2023/05/17 00:03:02;;;;;;;7.22;4.22;;;15.90;99.90;;;;;;5095717;28;20048;-73
2023/05/17 00:05:29;;;;;;;6.97;4.15;;;15.80;99.90;;;;;;5108783;28;20447;-73
2023/05/17 00:07:57;;;;;;;5.88;4.28;;;15.80;99.90;;;;;;5092961;28;20400;-73
2023/05/17 00:10:24;;;;;;;12.32;4.30;;;15.80;99.90;;;;;;5089797;28;20531;-73
2023/05/17 00:12:52;;;;;;;6.88;4.30;;;15.80;99.90;;;;;;5104034;28;20458;-73
2023/05/17 00:15:19;;;;;;;7.07;4.03;;;15.70;99.90;;;;;;5077801;28;20105;-73
2023/05/17 00:17:48;;;;;;;10.52;4.40;;;15.70;99.90;;;;;;5109689;28;20074;-73
2023/05/17 00:20:16;;;;;;;7.88;3.97;;;15.70;99.90;;;;;;5092998;28;20592;-73
2023/05/17 00:22:44;;;;;;;7.68;4.18;;;15.70;99.90;;;;;;5107374;28;20105;-72
2023/05/17 00:25:12;;;;;;;6.72;3.95;;;15.70;99.90;;;;;;5093862;28;20082;-73
2023/05/17 00:27:39;;;;;;;7.10;4.75;;;15.60;99.90;;;;;;5110493;28;20051;-73
2023/05/17 00:30:08;;;;;;;5.97;4.38;;;15.60;99.90;;;;;;5093493;28;20063;-73
2023/05/17 00:32:38;;;;;;;5.68;4.40;;;15.60;99.90;;;;;;5075212;28;20050;-73
2023/05/17 00:35:07;;;;;;;11.13;3.65;;;15.60;99.90;;;;;;5104288;28;20560;-73
2023/05/17 00:37:35;;;;;;;5.95;4.20;;;15.60;99.90;;;;;;5094020;28;20052;-73
2023/05/17 00:40:05;;;;;;;5.43;3.65;;;15.60;99.90;;;;;;5092640;28;20533;-73
2023/05/17 00:42:33;;;;;;;6.85;4.20;;;15.50;99.90;;;;;;5094127;28;20089;-73
2023/05/17 00:45:00;;;;;;;4.63;3.88;;;15.50;99.90;;;;;;5109426;28;20449;-73
2023/05/17 00:47:27;;;;;;;7.18;3.78;;;15.50;99.90;;;;;;5116603;27;20072;-73
2023/05/17 00:49:55;;;;;;;11.88;4.28;;;15.50;99.90;;;;;;5107110;28;20485;-74
2023/05/17 00:52:24;;;;;;;6.40;3.95;;;15.50;99.90;;;;;;5112219;28;20079;-74
2023/05/17 00:54:52;;;;;;;7.57;3.85;;;15.40;99.90;;;;;;5092299;28;20051;-74
2023/05/17 00:57:20;;;;;;;11.40;4.28;;;15.40;99.90;;;;;;5094648;28;20046;-73
2023/05/17 00:59:47;;;;;;;10.25;4.28;;;15.40;99.90;;;;;;5109783;28;20058;-73
2023/05/17 01:02:15;;;;;;;6.13;4.13;;;15.30;99.90;;;;;;5106565;27;20077;-73
2023/05/17 01:04:42;;;;;;;6.72;4.00;;;15.30;99.90;;;;;;5093121;28;20077;-74
2023/05/17 01:07:10;;;;;;;6.10;3.58;;;15.30;99.90;;;;;;5111923;28;20052;-73
2023/05/17 01:09:40;;;;;;;8.50;4.63;;;15.20;99.90;;;;;;5092419;28;20128;-73
2023/05/17 01:12:27;;;;;;;9.40;4.45;;;15.20;99.90;;;;;;5090242;28;20048;-74
2023/05/17 01:15:09;;;;;;;12.02;4.45;;;15.20;99.90;;;;;;5111011;27;20052;-74
2023/05/17 01:17:42;;;;;;;10.88;4.60;;;15.10;99.90;;;;;;5077876;28;20082;-73
2023/05/17 01:20:16;;;;;;;;;;;15.10;99.90;;;;;;5125677;27;20077;-72
2023/05/17 01:22:51;;;;;;;6.47;4.75;;;15.10;99.90;;;;;;5091482;28;20023;-73
2023/05/17 01:25:50;;;;;;;7.82;4.55;;;15.00;99.90;;;;;;5104811;27;20047;-72
2023/05/17 01:28:21;;;;;;;10.05;4.28;;;14.90;99.90;;;;;;5132310;27;20057;-73
2023/05/17 01:30:52;;;;;;;8.02;4.97;;;14.90;99.90;;;;;;5112009;27;20047;-72
2023/05/17 01:33:21;;;;;;;4.30;3.97;;;14.80;99.90;;;;;;5095893;28;20061;-72
2023/05/17 01:35:49;;;;;;;8.55;4.22;;;14.90;99.90;;;;;;5092515;28;20047;-73
2023/05/17 01:38:16;;;;;;;8.13;4.63;;;14.80;99.90;;;;;;5110273;28;20126;-73
2023/05/17 01:40:50;;;;;;;7.00;4.32;;;14.80;99.90;;;;;;5087227;28;20054;-73
2023/05/17 01:43:29;;;;;;;8.10;4.40;;;14.80;99.90;;;;;;5094563;28;20055;-73
2023/05/17 01:46:07;;;;;;;9.55;4.32;;;14.80;99.90;;;;;;5110795;28;20054;-74
2023/05/17 01:48:39;;;;;;;9.30;4.32;;;14.80;99.90;;;;;;5108048;28;20043;-73
2023/05/17 01:51:14;;;;;;;6.55;4.65;;;14.80;99.90;;;;;;5108457;28;20132;-73
2023/05/17 01:53:49;;;;;;;11.05;4.70;;;14.80;99.90;;;;;;5074504;28;20043;-73
2023/05/17 01:56:21;;;;;;;5.60;4.82;;;14.80;99.90;;;;;;5074332;28;20109;-73
2023/05/17 01:58:52;;;;;;;8.18;5.32;;;14.90;99.90;;;;;;5083002;28;20051;-74
2023/05/17 02:01:21;;;;;;;11.27;5.47;;;14.90;99.90;;;;;;5105632;28;20079;-73
2023/05/17 02:03:49;;;;;;;10.48;5.75;;;14.90;99.90;;;;;;5130920;27;20096;-73
2023/05/17 02:06:18;;;;;;;6.57;4.88;;;14.80;99.90;;;;;;5083575;28;20055;-73
2023/05/17 02:08:45;;;;;;;8.27;4.95;;;14.80;99.90;;;;;;5108774;28;20419;-74
2023/05/17 02:11:13;;;;;;;9.68;6.50;;;14.80;99.90;;;;;;5068211;28;20047;-74
2023/05/17 02:13:41;;;;;;;7.10;5.20;;;14.80;99.90;;;;;;5100125;28;20062;-74
2023/05/17 02:16:11;;;;;;;7.97;5.50;;;14.80;99.90;;;;;;5089968;28;20055;-73
2023/05/17 02:18:39;;;;;;;8.13;6.40;;;14.80;99.90;;;;;;5084104;28;20801;-74
2023/05/17 02:21:07;;;;;;;12.20;6.38;;;14.70;99.90;;;;;;5091805;28;20139;-74
2023/05/17 02:23:37;;;;;;;9.98;6.00;;;14.70;99.90;;;;;;5096825;28;20112;-73
2023/05/17 02:26:04;;;;;;;12.95;6.82;;;14.70;99.90;;;;;;5108148;28;20043;-74
2023/05/17 02:28:32;;;;;;;6.50;5.68;;;14.70;99.90;;;;;;5092448;28;20048;-73
2023/05/17 02:30:59;;;;;;;8.95;6.13;;;14.70;99.90;;;;;;5108416;28;20060;-74
2023/05/17 02:33:28;;;;;;;8.20;6.30;;;14.70;99.90;;;;;;5109786;28;20039;-73
2023/05/17 02:35:57;;;;;;;7.85;6.28;;;14.60;99.90;;;;;;5111053;28;20052;-73
2023/05/17 02:38:24;;;;;;;8.25;5.85;;;14.70;99.90;;;;;;5091381;28;20036;-73
2023/05/17 02:40:52;;;;;;;13.20;5.30;;;14.70;99.90;;;;;;5109550;28;20051;-73
2023/05/17 02:43:19;;;;;;;10.07;5.40;;;14.70;99.90;;;;;;5073393;28;20051;-73
2023/05/17 02:45:47;;;;;;;5.65;4.90;;;14.60;99.90;;;;;;5109794;28;20071;-73
2023/05/17 02:48:14;;;;;;;11.23;4.68;;;14.60;99.90;;;;;;5070754;28;20039;-74
2023/05/17 02:50:43;;;;;;;8.20;5.28;;;14.70;99.90;;;;;;5074141;28;20408;-74
2023/05/17 02:53:10;;;;;;;5.82;5.25;;;14.60;99.90;;;;;;5090153;28;20093;-74
2023/05/17 02:55:38;;;;;;;6.10;4.78;;;14.70;99.90;;;;;;5088346;28;20076;-74
2023/05/17 02:58:05;;;;;;;7.10;5.25;;;14.70;99.90;;;;;;5092744;28;20138;-73
2023/05/17 03:00:34;;;;;;;10.27;4.90;;;14.70;99.90;;;;;;5089200;28;20055;-74
2023/05/17 03:03:01;;;;;;;9.90;5.25;;;14.70;99.90;;;;;;5076017;28;20626;-74
2023/05/17 03:05:29;;;;;;;6.68;5.20;;;14.70;99.90;;;;;;5091237;27;20043;-74
2023/05/17 03:07:59;;;;;;;7.75;5.60;;;14.70;99.90;;;;;;5133486;27;20073;-75
2023/05/17 03:10:26;;;;;;;8.85;4.60;;;14.70;99.90;;;;;;5092700;28;20039;-73
2023/05/17 03:12:54;;;;;;;7.72;4.90;;;14.70;99.90;;;;;;5093972;28;20050;-73
2023/05/17 03:15:25;;;;;;;8.02;5.25;;;14.70;99.90;;;;;;5092141;28;20591;-74
2023/05/17 03:17:53;;;;;;;5.85;5.35;;;14.80;99.90;;;;;;5093167;28;20116;-74
2023/05/17 03:20:20;;;;;;;5.97;5.38;;;14.80;99.90;;;;;;5101381;28;20131;-73
2023/05/17 03:22:49;;;;;;;5.82;5.22;;;14.90;99.90;;;;;;5078042;28;20546;-74
2023/05/17 03:25:18;;;;;;;7.43;5.32;;;14.90;99.90;;;;;;5078777;28;20044;-74
2023/05/17 03:27:46;;;;;;;6.10;4.82;;;14.90;99.90;;;;;;5078263;28;20042;-73
2023/05/17 03:30:15;;;;;;;5.40;4.90;;;14.90;99.90;;;;;;5092568;28;20062;-74
2023/05/17 03:32:42;;;;;;;5.00;4.07;;;14.90;99.90;;;;;;5100869;28;20039;-74
2023/05/17 03:35:10;;;;;;;5.07;4.35;;;14.90;99.90;;;;;;5075757;28;20078;-74
2023/05/17 03:37:40;;;;;;;7.32;4.55;;;14.90;99.90;;;;;;5099456;28;20071;-74
2023/05/17 03:40:09;;;;;;;10.60;5.18;;;14.90;99.90;;;;;;5094682;28;20112;-74
2023/05/17 03:42:38;;;;;;;6.95;4.78;;;14.90;99.90;;;;;;5079379;28;20043;-73
2023/05/17 03:45:07;;;;;;;7.18;4.53;;;14.90;99.90;;;;;;5093260;28;20423;-74
2023/05/17 03:47:36;;;;;;;7.80;5.25;;;15.00;99.90;;;;;;5084285;28;20040;-80
2023/05/17 03:50:06;;;;;;;7.90;4.38;;;15.00;99.90;;;;;;5102083;28;20507;-79
2023/05/17 03:52:34;;;;;;;7.32;5.20;;;14.90;99.90;;;;;;5107301;27;20464;-79
2023/05/17 03:55:01;;;;;;;6.65;5.15;;;15.00;99.90;;;;;;5116362;27;20487;-78
2023/05/17 03:57:32;;;;;;;5.50;4.93;;;15.10;99.90;;;;;;5076986;28;20130;-79
2023/05/17 04:00:01;;;;;;;12.07;5.30;;;15.20;99.90;;;;;;5094024;28;20074;-73
2023/05/17 04:02:28;;;;;;;10.70;5.30;;;15.20;99.90;;;;;;5111499;28;20059;-73
2023/05/17 04:04:56;;;;;;;7.10;5.00;;;15.20;99.90;;;;;;5106155;28;20061;-74
2023/05/17 04:07:25;;;;;;;7.22;4.50;;;15.30;99.90;;;;;;5090982;27;20404;-73
2023/05/17 04:09:52;;;;;;;6.05;4.75;;;15.30;99.90;;;;;;5126304;27;20055;-74
2023/05/17 04:12:19;;;;;;;7.03;4.93;;;15.30;99.90;;;;;;5093951;28;20054;-73
2023/05/17 04:14:48;;;;;;;7.35;4.68;;;15.30;99.90;;;;;;5077702;28;20130;-74
2023/05/17 04:17:17;;;;;;;6.22;4.63;;;15.40;99.90;;;;;;5102181;28;20134;-74
2023/05/17 04:19:45;;;;;;;11.02;4.93;;;15.40;99.90;;;;;;5118860;27;20071;-74
2023/05/17 04:22:13;;;;;;;5.97;4.05;;;15.50;99.90;;;;;;5090832;28;20039;-74
2023/05/17 04:24:41;;;;;;;8.85;4.47;;;15.60;99.90;;;;;;5091773;28;20043;-74
2023/05/17 04:27:08;;;;;;;10.63;4.28;;;15.60;99.90;;;;;;5092998;28;20056;-75
2023/05/17 04:29:36;;;;;;;7.35;4.35;;;15.60;99.90;;;;;;5088701;28;20074;-74
2023/05/17 04:32:04;;;;;;;9.05;4.28;;;15.70;99.90;;;;;;5092923;28;20051;-74
2023/05/17 04:34:33;;;;;;;13.60;4.30;;;15.70;99.90;;;;;;5110150;28;20043;-75
2023/05/17 04:37:04;;;;;;;11.45;4.50;;;15.70;99.90;;;;;;5091161;28;20039;-75
2023/05/17 04:39:34;;;;;;;5.17;4.47;;;15.80;99.90;;;;;;5098668;27;20052;-74
2023/05/17 04:42:02;;;;;;;4.65;4.25;;;15.80;99.90;;;;;;5104407;28;20297;-75
2023/05/17 04:44:30;;;;;;;11.32;4.72;;;15.80;99.90;;;;;;5082844;28;20093;-74
2023/05/17 04:46:57;;;;;;;13.88;4.90;;;15.90;99.90;;;;;;5090747;28;20558;-73
2023/05/17 04:49:27;;;;;;;14.32;4.78;;;15.90;99.90;;;;;;5092250;28;20065;-74
2023/05/17 04:51:58;;;;;;;8.98;4.35;;;16.00;99.90;;;;;;5098945;28;20044;-74
2023/05/17 04:54:26;;;;;;;5.95;3.88;;;16.10;99.90;;;;;;5063715;28;20043;-74
2023/05/17 04:56:54;;;;;;;4.80;3.75;;;16.10;99.90;;;;;;5060252;28;20054;-73
2023/05/17 04:59:42;;;;;;;3.53;3.22;;;16.20;99.90;;;;;;5109724;28;20051;-73
2023/05/17 05:02:09;;;;;;;11.88;4.47;;;16.30;99.90;;;;;;5078980;28;20134;-74
2023/05/17 05:04:37;;;;;;;12.52;4.30;;;16.40;99.90;;;;;;5078773;28;20044;-73
2023/05/17 05:07:06;;;;;;;4.40;3.60;;;16.50;99.90;;;;;;5090751;28;20047;-75
2023/05/17 05:09:36;;;;;;;6.40;3.75;;;16.70;99.90;;;;;;5113183;27;20046;-74
2023/05/17 05:12:05;;;;;;;3.97;3.55;;;16.70;99.90;;;;;;5097458;28;20428;-73
2023/05/17 05:14:33;;;;;;;6.47;3.50;;;16.70;99.90;;;;;;5085730;28;20043;-73
2023/05/17 05:17:02;;;;;;;3.47;3.17;;;16.80;99.90;;;;;;5103473;28;20104;-80
2023/05/17 05:19:30;;;;;;;9.05;3.80;;;16.90;99.90;;;;;;5072204;28;20521;-80
2023/05/17 05:21:59;;;;;;;6.40;3.80;;;17.00;99.90;;;;;;5083480;28;20048;-79
2023/05/17 05:24:28;;;;;;;10.45;5.13;;;17.20;99.90;;;;;;5075139;28;20042;-80
2023/05/17 05:26:57;;;;;;;9.20;3.42;;;17.50;99.90;;;;;;5088662;28;20068;-79
2023/05/17 05:29:26;;;;;;;5.55;3.22;;;18.00;99.90;;;;;;5108628;27;20142;-79
2023/05/17 05:31:54;;;;;;;11.27;3.63;;;18.40;99.90;;;;;;5097627;27;20055;-77
2023/05/17 05:34:23;;;;;;;5.05;2.80;;;18.70;99.90;;;;;;5094719;28;20565;-78
2023/05/17 05:36:51;;;;;;;4.90;3.25;;;18.90;99.90;;;;;;5090800;28;20138;-75
2023/05/17 05:39:18;;;;;;;5.75;3.53;;;19.10;99.90;;;;;;5107938;28;20419;-72
2023/05/17 05:41:47;;;;;;;8.57;3.60;;;19.10;99.90;;;;;;5089331;28;20389;-75
2023/05/17 05:44:15;;;;;;;6.80;3.17;;;19.30;99.90;;;;;;5113405;27;20040;-76
2023/05/17 05:46:42;;;;;;;7.82;3.13;;;19.50;99.90;;;;;;5111696;28;20043;-75
2023/05/17 05:49:11;;;;;;;14.85;3.25;;;19.80;99.90;;;;;;5094902;28;20128;-75
2023/05/17 05:51:39;;;;;;;4.07;2.78;;;20.20;99.90;;;;;;5111555;28;20127;-82
2023/05/17 05:54:07;;;;;;;4.88;2.75;;;20.50;99.90;;;;;;5090219;28;20044;-80
2023/05/17 05:56:35;;;;;;;9.90;3.05;;;20.70;99.90;;;;;;5090498;28;20134;-79
2023/05/17 05:59:05;;;;;;;4.50;2.72;;;21.00;99.90;;;;;;5102114;28;20047;-80
2023/05/17 06:01:36;;;;;;;4.78;2.35;;;20.80;99.90;;;;;;5083187;28;20043;-73
2023/05/17 06:04:04;;;;;;;4.63;2.13;;;20.40;99.90;;;;;;5102846;28;20048;-80
2023/05/17 06:06:31;;;;;;;3.67;2.60;;;20.20;99.90;;;;;;5076298;28;20121;-80
2023/05/17 06:08:59;;;;;;;5.50;1.98;;;20.40;99.90;;;;;;5084699;28;20051;-75
2023/05/17 06:11:27;;;;;;;2.60;2.20;;;20.30;99.90;;;;;;5108445;28;20578;-74
2023/05/17 06:13:55;;;;;;;7.60;2.53;;;20.50;99.90;;;;;;5099380;28;20590;-80
2023/05/17 06:16:25;;;;;;;3.15;2.42;;;20.90;99.90;;;;;;5106668;28;20055;-80
2023/05/17 06:18:53;;;;;;;6.28;2.10;;;20.90;99.90;;;;;;5108983;28;20055;-74
2023/05/17 06:21:20;;;;;;;5.43;2.10;;;20.70;99.90;;;;;;5086110;28;20051;-74
2023/05/17 06:23:49;;;;;;;7.78;2.08;;;20.60;99.90;;;;;;5102817;28;20119;-73
2023/05/17 06:26:24;;;;;;;7.18;2.20;;;20.50;99.90;;;;;;5087428;28;20064;-82
2023/05/17 06:28:55;;;;;;;6.60;2.60;;;20.50;99.90;;;;;;5107614;28;20047;-74
2023/05/17 06:31:24;;;;;;;3.20;2.80;;;20.90;99.90;;;;;;5104908;28;20043;-82
2023/05/17 06:33:52;;;;;;;2.75;2.00;;;21.00;99.10;;;;;;5071071;28;20048;-80
2023/05/17 06:36:19;;;;;;;6.35;2.22;;;20.90;98.00;;;;;;5109520;28;20055;-81
2023/05/17 06:38:47;;;;;;;6.65;2.50;;;20.80;98.40;;;;;;5119148;27;20051;-75
2023/05/17 06:41:14;;;;;;;6.43;1.70;;;20.70;98.30;;;;;;5095805;28;20044;-80
2023/05/17 06:43:42;;;;;;;4.90;2.25;;;20.40;97.40;;;;;;5096231;28;20055;-80
2023/05/17 06:46:10;;;;;;;5.45;2.60;;;20.00;98.00;;;;;;5078787;28;20052;-80
2023/05/17 06:48:42;;;;;;;9.77;2.42;;;19.60;99.10;;;;;;5095016;28;20040;-79
2023/05/17 06:51:09;;;;;;;7.75;2.17;;;19.30;99.60;;;;;;5112813;28;20112;-79
2023/05/17 06:53:38;;;;;;;4.10;2.20;;;19.00;99.90;;;;;;5115296;28;20100;-74
2023/05/17 06:56:07;;;;;;;9.68;2.50;;;18.70;99.90;;;;;;5110433;27;20104;-80
2023/05/17 06:58:35;;;;;;;5.75;2.88;;;18.50;99.90;;;;;;5130440;27;20100;-80
2023/05/17 07:01:03;;;;;;;8.02;2.70;;;18.40;99.90;;;;;;5094896;28;20081;-81
2023/05/17 07:03:30;;;;;;;6.80;2.30;;;18.20;99.90;;;;;;5069178;28;20047;-80
2023/05/17 07:06:00;;;;;;;6.18;2.25;;;18.10;99.90;;;;;;5112977;28;20105;-80
2023/05/17 07:08:27;;;;;;;4.15;2.17;;;17.90;99.90;;;;;;5075183;28;20043;-78
2023/05/17 07:10:55;;;;;;;4.95;3.08;;;17.80;99.90;;;;;;5097095;28;20051;-79
2023/05/17 07:13:22;;;;;;;4.32;2.08;;;17.70;99.90;;;;;;5078840;28;20048;-79
2023/05/17 07:15:50;;;;;;;3.72;2.90;;;17.70;99.90;;;;;;5113859;28;20063;-80
2023/05/17 07:18:17;;;;;;;3.53;1.95;;;17.70;99.90;;;;;;5091270;27;20778;-79
2023/05/17 07:20:45;;;;;;;4.95;1.50;;;17.80;99.90;;;;;;5093963;28;20113;-80
2023/05/17 07:23:14;;;;;;;8.02;2.30;;;17.80;99.90;;;;;;5113703;28;20461;-80
2023/05/17 07:25:41;;;;;;;6.30;1.70;;;17.80;99.90;;;;;;5095114;28;20083;-78
2023/05/17 07:28:09;;;;;;;4.50;2.17;;;17.80;99.90;;;;;;5111657;28;20051;-79
2023/05/17 07:30:36;;;;;;;7.13;2.30;;;17.80;99.90;;;;;;5095211;28;20093;-79
2023/05/17 07:33:04;;;;;;;3.92;1.73;;;17.90;99.90;;;;;;5093769;28;20055;-80
2023/05/17 07:35:32;;;;;;;5.50;1.90;;;18.00;99.90;;;;;;5112799;28;20135;-78
2023/05/17 07:37:59;;;;;;;4.82;1.85;;;18.00;99.90;;;;;;5112179;28;20070;-80
2023/05/17 07:40:28;;;;;;;12.93;1.90;;;18.00;99.90;;;;;;5093264;28;20046;-78
2023/05/17 07:42:56;;;;;;;3.15;1.77;;;18.00;99.90;;;;;;5106362;28;20611;-79
2023/05/17 07:45:23;;;;;;;4.68;1.85;;;17.90;99.90;;;;;;5094527;28;20491;-81
2023/05/17 07:47:51;;;;;;;4.97;1.90;;;18.00;99.90;;;;;;5091700;28;20054;-80
2023/05/17 07:50:18;;;;;;;6.35;2.03;;;18.10;99.90;;;;;;5094836;28;20059;-79
2023/05/17 07:52:45;;;;;;;4.35;1.90;;;18.00;99.90;;;;;;5112959;28;20481;-79
2023/05/17 07:55:13;;;;;;;6.18;1.85;;;17.90;99.90;;;;;;5093822;28;20092;-79
2023/05/17 07:57:42;;;;;;;1.98;1.77;;;17.90;99.90;;;;;;5077608;28;20051;-78
2023/05/17 08:00:11;;;;;;;7.53;2.45;;;17.80;99.90;;;;;;5092346;28;20323;-79
2023/05/17 08:02:39;;;;;;;3.78;2.10;;;17.80;99.90;;;;;;5104641;28;20048;-79
2023/05/17 08:05:08;;;;;;;5.18;2.17;;;17.80;99.90;;;;;;5075835;28;20040;-79
2023/05/17 08:07:36;;;;;;;6.95;2.05;;;17.90;99.90;;;;;;5110228;28;20051;-79
2023/05/17 08:10:04;;;;;;;11.35;3.63;;;18.00;99.90;;;;;;5094296;28;20071;-79
2023/05/17 08:12:33;;;;;;;3.55;2.17;;;18.10;99.90;;;;;;5111927;28;20050;-79
2023/05/17 08:15:06;;;;;;;6.40;2.30;;;18.00;99.90;;;;;;5063747;28;20044;-78
2023/05/17 08:17:34;;;;;;;5.32;2.63;;;18.00;99.90;;;;;;5098467;28;20446;-78
2023/05/17 08:20:02;;;;;;;8.10;2.83;;;17.90;99.90;;;;;;5093983;28;20047;-79
2023/05/17 08:22:31;;;;;;;8.30;1.70;;;18.00;99.90;;;;;;5093123;28;20044;-75
2023/05/17 08:24:58;;;;;;;7.75;1.83;;;18.00;99.90;;;;;;5109298;28;20487;-76
2023/05/17 08:27:26;;;;;;;5.80;2.25;;;18.00;99.90;;;;;;5110681;28;20531;-74
2023/05/17 08:29:56;;;;;;;3.88;2.00;;;18.10;99.90;;;;;;5092191;28;20531;-76
2023/05/17 08:32:26;;;;;;;4.00;1.90;;;18.30;99.90;;;;;;5093092;28;20088;-77
2023/05/17 08:34:53;;;;;;;5.38;2.03;;;18.40;99.90;;;;;;5083970;28;20408;-76
2023/05/17 08:37:21;;;;;;;7.00;2.25;;;18.60;99.90;;;;;;5099773;28;20047;-76
2023/05/17 08:39:51;;;;;;;6.80;2.35;;;18.90;99.90;;;;;;5110935;28;20101;-72
2023/05/17 08:42:24;;;;;;;3.28;1.77;;;19.00;99.90;;;;;;5105755;28;20039;-73
2023/05/17 08:44:53;;;;;;;5.20;1.70;;;19.10;99.90;;;;;;5095151;28;20091;-75
2023/05/17 08:47:28;;;;;;;5.25;1.80;;;19.00;99.90;;;;;;5095818;28;20047;-73
2023/05/17 08:49:59;;;;;;;5.45;1.90;;;18.80;99.90;;;;;;5110133;28;20495;-74
2023/05/17 08:52:31;;;;;;;3.92;1.42;;;18.60;99.90;;;;;;5108430;28;20047;-74
2023/05/17 08:55:04;;;;;;;9.48;2.03;;;18.50;99.90;;;;;;5111495;27;20127;-74
2023/05/17 08:57:36;;;;;;;6.68;2.03;;;18.30;99.90;;;;;;5092512;28;20513;-75
2023/05/17 09:00:11;;;;;;;2.35;1.42;;;18.20;99.90;;;;;;5110551;28;20500;-81
2023/05/17 09:02:39;;;;;;;5.65;2.20;;;18.10;99.90;;;;;;5076366;28;20495;-79
2023/05/17 09:05:09;;;;;;;2.55;2.03;;;18.10;99.90;;;;;;5089136;28;20051;-78
2023/05/17 09:07:37;;;;;;;2.47;1.70;;;18.00;99.90;;;;;;5092959;28;20058;-79
2023/05/17 09:10:06;;;;;;;3.90;2.22;;;17.90;99.90;;;;;;5092362;28;20089;-79
2023/05/17 09:12:34;;;;;;;2.90;1.70;;;17.90;99.90;;;;;;5115030;27;20519;-79
2023/05/17 09:15:16;;;;;;;5.95;1.83;;;17.90;99.90;;;;;;5091690;28;20059;-79
2023/05/17 09:17:44;;;;;;;4.20;1.90;;;18.00;99.90;;;;;;5089980;28;20093;-78
2023/05/17 09:20:13;;;;;;;7.03;2.03;;;18.70;99.90;;;;;;5111957;28;20085;-80
2023/05/17 09:22:40;;;;;;;5.68;2.40;;;20.00;99.90;;;;;;5093538;28;20046;-81
2023/05/17 09:25:09;;;;;;;6.15;2.20;;;20.50;99.90;;;;;;5076386;28;20079;-78
2023/05/17 09:27:36;;;;;;;4.63;2.30;;;20.30;99.70;;;;;;5089119;28;20423;-76
2023/05/17 09:30:11;;;;;;;3.85;1.80;;;19.90;99.90;;;;;;5106848;28;20499;-76
2023/05/17 09:32:44;;;;;;;10.75;2.40;;;19.50;99.90;;;;;;5103783;27;20047;-75
2023/05/17 09:35:13;;;;;;;9.55;2.42;;;19.00;99.90;;;;;;5105919;28;20076;-75
2023/05/17 09:37:45;;;;;;;5.80;2.28;;;18.70;99.90;;;;;;5096029;27;20039;-75
2023/05/17 09:40:24;;;;;;;2.38;2.10;;;18.50;99.90;;;;;;5107667;27;20047;-75
2023/05/17 09:42:52;;;;;;;8.50;2.22;;;18.60;99.90;;;;;;5098529;28;20143;-74
2023/05/17 09:45:23;;;;;;;6.18;2.25;;;18.80;99.90;;;;;;5110129;28;20067;-75
2023/05/17 09:47:51;;;;;;;9.80;2.70;;;18.80;99.90;;;;;;5090774;28;20062;-74
2023/05/17 09:50:21;;;;;;;5.70;2.20;;;19.00;99.90;;;;;;5108489;28;20088;-75
2023/05/17 09:52:49;;;;;;;7.05;2.03;;;19.10;99.90;;;;;;5087404;28;20058;-75
2023/05/17 09:55:17;;;;;;;9.00;2.20;;;19.40;99.90;;;;;;5081770;27;20044;-76
2023/05/17 09:57:45;;;;;;;5.70;2.55;;;19.60;99.90;;;;;;5102103;28;20046;-78
2023/05/17 10:00:16;;;;;;;5.15;2.30;;;19.80;99.90;;;;;;5079267;28;20134;-75
2023/05/17 10:02:48;;;;;;;8.65;2.38;;;19.90;99.90;;;;;;5102030;28;20043;-73
2023/05/17 10:05:19;;;;;;;6.00;2.17;;;20.30;99.90;;;;;;5104384;27;20047;-77
2023/05/17 10:07:50;;;;;;;6.47;2.15;;;21.20;98.80;;;;;;5085644;27;20389;-75
2023/05/17 10:10:19;;;;;;;2.75;2.38;;;22.20;97.50;;;;;;5078326;28;20397;-74
2023/05/17 10:12:48;;;;;;;3.13;2.10;;;24.10;92.50;;;;;;5109256;28;20036;-74
2023/05/17 10:15:17;;;;;;;5.22;1.90;;;24.60;87.20;;;;;;5107340;28;20237;-74
2023/05/17 10:17:45;;;;;;;4.03;1.52;;;24.20;85.20;;;;;;5112525;28;20089;-76
2023/05/17 10:20:17;;;;;;;4.00;2.13;;;24.20;85.90;;;;;;5109611;28;20060;-75
2023/05/17 10:22:47;;;;;;;6.50;2.20;;;24.80;84.70;;;;;;5102852;28;20040;-74
2023/05/17 10:25:15;;;;;;;10.23;2.05;;;24.80;80.00;;;;;;5109947;28;20427;-74
2023/05/17 10:27:42;;;;;;;6.28;2.33;;;24.20;80.80;;;;;;5091810;28;20470;-75
2023/05/17 10:30:13;;;;;;;3.75;2.35;;;23.70;82.40;;;;;;5110752;28;20044;-79
2023/05/17 10:32:42;;;;;;;6.30;2.17;;;23.40;84.30;;;;;;5110736;28;20046;-80
2023/05/17 10:35:14;;;;;;;7.45;2.67;;;24.20;84.10;;;;;;5103503;28;20108;-76
2023/05/17 10:37:46;;;;;;;7.40;2.22;;;24.40;80.60;;;;;;5081907;28;20075;-75
2023/05/17 10:40:16;;;;;;;9.02;2.20;;;24.30;79.80;;;;;;5100002;28;20166;-82
2023/05/17 10:42:49;;;;;;;7.07;2.45;;;24.10;82.00;;;;;;5098422;28;20044;-81
2023/05/17 10:45:20;;;;;;;5.15;2.08;;;24.40;79.30;;;;;;5086404;28;20491;-82
2023/05/17 10:47:51;;;;;;;13.23;2.85;;;23.80;79.90;;;;;;5106720;28;20047;-82
2023/05/17 10:50:23;;;;;;;3.97;1.92;;;23.40;81.60;;;;;;5072531;28;20488;-82
2023/05/17 10:52:54;;;;;;;10.50;2.25;;;23.10;81.80;;;;;;5093181;28;20431;-81
2023/05/17 10:55:24;;;;;;;4.88;1.95;;;22.60;83.00;;;;;;5107268;28;20040;-81
2023/05/17 10:58:16;;;;;;;5.65;2.72;;;22.70;84.90;;;;;;5108758;28;20189;-82
2023/05/17 11:00:47;;;;;;;5.13;1.97;;;23.10;82.80;;;;;;5088606;28;20500;-80
2023/05/17 11:03:18;;;;;;;7.20;1.90;;;22.90;83.20;;;;;;5087875;28;20048;-80
2023/05/17 11:06:16;;;;;;;6.03;2.38;;;22.40;84.70;;;;;;5108727;28;20117;-79
2023/05/17 11:09:06;;;;;;;3.00;2.40;;;22.30;86.00;;;;;;5109923;28;20120;-80
2023/05/17 11:11:35;;;;;;;11.27;2.47;;;22.30;86.10;;;;;;5092047;28;20061;-80
2023/05/17 11:14:05;;;;;;;2.20;1.90;;;22.70;84.20;;;;;;5108223;28;20048;-81
2023/05/17 11:16:37;;;;;;;4.45;2.20;;;23.00;83.40;;;;;;5109548;28;20498;-80
2023/05/17 11:19:10;;;;;;;5.65;2.15;;;23.10;82.00;;;;;;5109700;28;20044;-81
2023/05/17 11:21:47;;;;;;;6.13;2.28;;;22.90;82.30;;;;;;5089092;28;20150;-79
2023/05/17 11:24:26;;;;;;;5.32;2.67;;;22.70;83.30;;;;;;5112272;28;20051;-78
2023/05/17 11:27:00;;;;;;;4.72;2.85;;;22.30;84.10;;;;;;5111473;28;20105;-77
2023/05/17 11:29:30;;;;;;;6.57;2.22;;;21.90;85.40;;;;;;5086559;27;20124;-77
2023/05/17 11:31:57;;;;;;;4.47;2.30;;;21.60;86.60;;;;;;5105400;27;20079;-76
2023/05/17 11:34:27;;;;;;;5.50;2.25;;;21.50;88.10;;;;;;5084585;27;20094;-74
2023/05/17 11:36:56;;;;;;;10.95;2.50;;;21.50;87.80;;;;;;5083810;28;20076;-76
2023/05/17 11:39:25;;;;;;;9.55;3.42;;;21.60;87.80;;;;;;5110366;27;20130;-75
2023/05/17 11:41:55;;;;;;;4.38;2.33;;;21.80;88.10;;;;;;5108437;27;20055;-74
2023/05/17 11:44:30;;;;;;;3.47;2.53;;;21.90;87.30;;;;;;5086738;28;20051;-73
2023/05/17 11:47:03;;;;;;;3.33;2.78;;;22.40;85.70;;;;;;5102050;28;20055;-74
2023/05/17 11:49:32;;;;;;;9.52;2.67;;;23.30;83.30;;;;;;5107083;27;20052;-74
2023/05/17 11:52:00;;;;;;;8.55;2.70;;;23.60;80.50;;;;;;5090487;27;20397;-74
2023/05/17 11:54:31;;;;;;;4.97;2.20;;;23.50;80.50;;;;;;5093125;28;20062;-75
2023/05/17 11:57:01;;;;;;;6.88;2.72;;;23.20;80.90;;;;;;5110257;27;20062;-74
2023/05/17 11:59:29;;;;;;;3.38;3.08;;;22.60;82.50;;;;;;5091589;27;20040;-74
2023/05/17 12:01:56;;;;;;;9.73;2.70;;;22.30;84.10;;;;;;5091976;28;20059;-75
2023/05/17 12:04:25;;;;;;;7.88;2.85;;;22.10;85.20;;;;;;5110510;28;20472;-74
2023/05/17 12:06:55;;;;;;;3.53;2.40;;;22.60;84.40;;;;;;5108959;28;21369;-76
2023/05/17 12:09:24;;;;;;;4.18;3.30;;;23.00;80.80;;;;;;5092180;28;20054;-74
2023/05/17 12:11:54;;;;;;;4.95;3.00;;;22.80;81.10;;;;;;5109230;28;20435;-75
2023/05/17 12:14:22;;;;;;;8.90;2.90;;;22.60;81.20;;;;;;5088468;28;20084;-75
2023/05/17 12:16:55;;;;;;;8.43;2.88;;;22.30;81.70;;;;;;5104656;28;20051;-74
2023/05/17 12:19:25;;;;;;;11.80;2.33;;;22.20;82.30;;;;;;5092612;28;20058;-74
2023/05/17 12:21:53;;;;;;;5.45;2.63;;;22.10;83.50;;;;;;5108475;28;20039;-74
2023/05/17 12:24:21;;;;;;;4.82;2.58;;;22.00;83.00;;;;;;5106470;28;20471;-76
2023/05/17 12:26:50;;;;;;;6.25;2.70;;;21.90;83.30;;;;;;5074316;28;20044;-75
2023/05/17 12:29:22;;;;;;;6.72;2.30;;;22.00;83.50;;;;;;5093114;28;20526;-76
2023/05/17 12:31:52;;;;;;;13.10;2.72;;;22.50;82.70;;;;;;5110960;28;20043;-75
2023/05/17 12:34:20;;;;;;;4.75;2.60;;;23.20;80.50;;;;;;5111302;27;20043;-76
2023/05/17 12:36:49;;;;;;;4.95;3.05;;;23.40;78.60;;;;;;5108087;28;20043;-81
2023/05/17 12:39:22;;;;;;;3.67;2.65;;;23.40;77.80;;;;;;5111054;27;20054;-82
2023/05/17 12:41:51;;;;;;;10.20;3.22;;;23.70;79.00;;;;;;5092581;28;20054;-80
2023/05/17 12:44:21;;;;;;;6.85;2.78;;;24.90;76.50;;;;;;5090303;28;20054;-79
2023/05/17 12:46:52;;;;;;;3.85;2.75;;;25.60;73.50;;;;;;5108115;28;20039;-80
2023/05/17 12:49:21;;;;;;;4.93;2.40;;;26.60;69.90;;;;;;5111953;27;20056;-80
2023/05/17 12:51:49;;;;;;;8.50;2.42;;;26.40;69.20;;;;;;5109471;27;20453;-79
2023/05/17 12:54:27;;;;;;;9.45;2.85;;;25.90;69.90;;;;;;5109403;27;20108;-79
2023/05/17 12:56:55;;;;;;;3.40;2.75;;;25.10;71.60;;;;;;5091129;28;20135;-80